Time;durP1;ratioP1;P1;durP2;ratioP2;P2;SDS_P1;SDS_P2;PMS_P1;PMS_P2;Temp;Humidity;BMP_temperature;BMP_pressure;BME280_temperature;BME280_humidity;BME280_pressure;Samples;Min_cycle;Max_cycle;Signal;HPM_P1;HPM_P2
2021/09/06 00:00:40;;;;;;;35.72;23.17;;;16.00;99.90;;;;;;5012825;28;25060;-74
2021/09/06 00:03:06;;;;;;;35.63;24.20;;;15.90;99.90;;;;;;5011488;28;25076;-75
2021/09/06 00:05:33;;;;;;;31.92;24.63;;;15.80;99.90;;;;;;5011134;28;25100;-74
2021/09/06 00:07:58;;;;;;;35.53;24.33;;;15.70;99.90;;;;;;5011497;28;25077;-74
2021/09/06 00:10:33;;;;;;;35.20;24.95;;;15.60;99.90;;;;;;5009131;28;25063;-72
2021/09/06 00:13:00;;;;;;;31.15;23.70;;;15.60;99.90;;;;;;5007368;28;25061;-73
2021/09/06 00:15:28;;;;;;;36.10;25.33;;;15.50;99.90;;;;;;5009614;28;25130;-75
2021/09/06 00:17:53;;;;;;;33.38;24.48;;;15.50;99.90;;;;;;5010598;28;25061;-74
2021/09/06 00:20:20;;;;;;;32.28;23.58;;;15.50;99.90;;;;;;5012931;28;25056;-75
2021/09/06 00:22:46;;;;;;;37.70;23.95;;;15.50;99.90;;;;;;5007540;28;25134;-73
2021/09/06 00:25:12;;;;;;;37.83;24.33;;;15.70;99.90;;;;;;5006639;28;25071;-75
2021/09/06 00:27:38;;;;;;;35.47;25.17;;;15.50;99.90;;;;;;5006895;28;25072;-72
2021/09/06 00:30:05;;;;;;;31.92;24.25;;;15.50;99.90;;;;;;5005647;28;25058;-76
2021/09/06 00:32:30;;;;;;;32.17;23.33;;;15.40;99.90;;;;;;5008618;28;25067;-74
2021/09/06 00:34:56;;;;;;;36.45;25.40;;;15.30;99.90;;;;;;5012097;28;25051;-75
2021/09/06 00:37:22;;;;;;;33.53;24.42;;;15.30;99.90;;;;;;5008038;28;25170;-74
2021/09/06 00:39:47;;;;;;;36.30;24.88;;;15.30;99.90;;;;;;5010326;28;25074;-76
2021/09/06 00:42:14;;;;;;;32.72;23.30;;;15.30;99.90;;;;;;5010433;28;25050;-73
2021/09/06 00:44:40;;;;;;;33.47;23.35;;;15.40;99.90;;;;;;5009471;28;25069;-74
2021/09/06 00:47:05;;;;;;;35.42;25.13;;;15.40;99.90;;;;;;5010718;28;25077;-75
2021/09/06 00:49:31;;;;;;;38.00;24.67;;;15.30;99.90;;;;;;5007631;28;25051;-73
2021/09/06 00:51:57;;;;;;;35.22;24.08;;;15.10;99.90;;;;;;5019217;28;25083;-73
2021/09/06 00:54:22;;;;;;;36.60;24.40;;;15.10;99.90;;;;;;5026071;28;25099;-73
2021/09/06 00:56:48;;;;;;;33.47;24.73;;;15.10;99.90;;;;;;5029713;28;25058;-72
2021/09/06 00:59:15;;;;;;;37.85;24.00;;;15.10;99.90;;;;;;5030759;28;25067;-72
2021/09/06 01:01:41;;;;;;;37.90;24.63;;;15.10;99.90;;;;;;5029263;28;25057;-72
2021/09/06 01:04:07;;;;;;;34.75;23.38;;;15.10;99.90;;;;;;5025411;28;25082;-74
2021/09/06 01:06:32;;;;;;;37.35;24.95;;;15.10;99.90;;;;;;5019842;28;25068;-73
2021/09/06 01:08:58;;;;;;;32.75;23.17;;;15.10;99.90;;;;;;5025920;28;25081;-73
2021/09/06 01:11:23;;;;;;;34.20;24.42;;;15.10;99.90;;;;;;5016439;28;25090;-71
2021/09/06 01:13:49;;;;;;;33.75;24.85;;;15.00;99.90;;;;;;5018798;28;25081;-74
2021/09/06 01:16:16;;;;;;;36.78;24.17;;;14.90;99.90;;;;;;5030379;28;25051;-72
2021/09/06 01:18:41;;;;;;;35.38;26.02;;;14.90;99.90;;;;;;5032602;28;25077;-73
2021/09/06 01:21:09;;;;;;;38.45;25.33;;;14.90;99.90;;;;;;5033831;28;25076;-72
2021/09/06 01:23:35;;;;;;;35.88;24.83;;;14.90;99.90;;;;;;5032110;28;25079;-72
2021/09/06 01:26:01;;;;;;;31.95;24.75;;;15.00;99.90;;;;;;5029874;28;25065;-71
2021/09/06 01:28:29;;;;;;;37.85;25.27;;;15.00;99.90;;;;;;5034127;28;25144;-71
2021/09/06 01:30:55;;;;;;;36.70;25.52;;;15.00;99.90;;;;;;5029486;28;25068;-72
2021/09/06 01:33:23;;;;;;;32.38;24.33;;;15.00;99.90;;;;;;5034347;28;25112;-71
2021/09/06 01:35:48;;;;;;;35.97;26.30;;;14.90;99.90;;;;;;5029188;28;25095;-73
2021/09/06 01:38:14;;;;;;;39.25;24.45;;;14.90;99.90;;;;;;5033586;28;25079;-72
2021/09/06 01:40:39;;;;;;;39.42;26.65;;;14.80;99.90;;;;;;5033262;28;25058;-74
2021/09/06 01:43:05;;;;;;;37.95;26.42;;;14.80;99.90;;;;;;5030164;28;25082;-73
2021/09/06 01:45:31;;;;;;;39.10;26.65;;;14.80;99.90;;;;;;5030972;28;25050;-73
2021/09/06 01:47:57;;;;;;;41.95;27.95;;;14.80;99.90;;;;;;5027987;28;25096;-72
2021/09/06 01:50:24;;;;;;;40.15;26.10;;;14.80;99.90;;;;;;5031966;28;25053;-71
2021/09/06 01:52:50;;;;;;;39.00;25.83;;;14.80;99.90;;;;;;5026983;28;25067;-74
2021/09/06 01:55:15;;;;;;;41.25;26.65;;;14.80;99.90;;;;;;5009931;28;25064;-74
2021/09/06 01:57:41;;;;;;;42.75;26.80;;;14.80;99.90;;;;;;5011770;28;25082;-73
2021/09/06 02:00:07;;;;;;;41.53;27.67;;;14.70;99.90;;;;;;5012744;28;25097;-73
2021/09/06 02:02:33;;;;;;;39.70;27.27;;;14.70;99.90;;;;;;5013526;28;25074;-73
2021/09/06 02:04:58;;;;;;;34.33;25.60;;;14.70;99.90;;;;;;5007946;28;25064;-74
2021/09/06 02:07:24;;;;;;;46.95;28.00;;;14.70;99.90;;;;;;5012487;28;25066;-73
2021/09/06 02:09:49;;;;;;;38.35;27.60;;;14.80;99.90;;;;;;5008813;28;25056;-73
2021/09/06 02:12:16;;;;;;;39.92;27.48;;;14.80;99.90;;;;;;5005767;28;25090;-74
2021/09/06 02:14:41;;;;;;;41.25;27.35;;;14.80;99.90;;;;;;5009999;28;25079;-74
2021/09/06 02:17:07;;;;;;;42.50;29.23;;;14.80;99.90;;;;;;5009814;28;25075;-74
2021/09/06 02:19:33;;;;;;;38.88;28.08;;;14.70;99.90;;;;;;5013454;28;25077;-74
2021/09/06 02:21:58;;;;;;;41.08;28.10;;;14.70;99.90;;;;;;5012742;28;25067;-73
2021/09/06 02:24:26;;;;;;;40.10;27.17;;;14.60;99.90;;;;;;5014717;28;25056;-72
2021/09/06 02:26:52;;;;;;;41.70;28.83;;;14.70;99.90;;;;;;5016093;28;25067;-73
2021/09/06 02:29:17;;;;;;;40.85;28.48;;;14.70;99.90;;;;;;5017441;28;25076;-73
2021/09/06 02:31:44;;;;;;;38.05;28.10;;;14.80;99.90;;;;;;5010991;28;25053;-73
2021/09/06 02:34:11;;;;;;;41.25;27.95;;;14.80;99.90;;;;;;5009985;28;25079;-73
2021/09/06 02:36:37;;;;;;;48.22;31.17;;;14.70;99.90;;;;;;5011109;28;25071;-72
2021/09/06 02:39:04;;;;;;;38.40;27.27;;;14.50;99.90;;;;;;5010688;28;25163;-74
2021/09/06 02:41:31;;;;;;;37.63;27.33;;;14.50;99.90;;;;;;5011128;28;25107;-74
2021/09/06 02:43:57;;;;;;;40.20;28.67;;;14.50;99.90;;;;;;5012357;28;25098;-76
2021/09/06 02:46:22;;;;;;;45.05;27.63;;;14.40;99.90;;;;;;5015150;28;25102;-73
2021/09/06 02:48:48;;;;;;;37.38;27.13;;;14.40;99.90;;;;;;5013973;28;25059;-74
2021/09/06 02:51:14;;;;;;;40.13;27.70;;;14.40;99.90;;;;;;5016952;28;25106;-73
2021/09/06 02:53:39;;;;;;;38.13;27.10;;;14.30;99.90;;;;;;5014605;28;25092;-74
2021/09/06 02:56:05;;;;;;;40.97;26.98;;;14.30;99.90;;;;;;5024658;28;25076;-72
2021/09/06 02:58:31;;;;;;;40.67;28.10;;;14.40;99.90;;;;;;5016821;28;25091;-74
2021/09/06 03:00:56;;;;;;;36.85;25.88;;;14.30;99.90;;;;;;5016127;28;25091;-73
2021/09/06 03:03:22;;;;;;;38.30;26.90;;;14.30;99.90;;;;;;5015264;28;25108;-72
2021/09/06 03:05:47;;;;;;;37.20;26.75;;;14.40;99.90;;;;;;5013394;28;25060;-74
2021/09/06 03:08:13;;;;;;;38.40;27.17;;;14.40;99.90;;;;;;5027145;28;25059;-71
2021/09/06 03:10:39;;;;;;;38.40;27.08;;;14.40;99.90;;;;;;5031267;28;25058;-71
2021/09/06 03:13:04;;;;;;;39.13;27.17;;;14.40;99.90;;;;;;5024813;28;25129;-73
2021/09/06 03:15:30;;;;;;;40.28;27.63;;;14.30;99.90;;;;;;5005647;28;25140;-73
2021/09/06 03:17:56;;;;;;;41.45;27.30;;;14.30;99.90;;;;;;5011116;28;25069;-73
2021/09/06 03:20:22;;;;;;;42.47;28.17;;;14.30;99.90;;;;;;5007062;28;25102;-74
2021/09/06 03:22:47;;;;;;;44.67;29.98;;;14.30;99.90;;;;;;5011056;28;25085;-73
2021/09/06 03:25:13;;;;;;;39.58;27.27;;;14.20;99.90;;;;;;5008532;28;25097;-74
2021/09/06 03:27:40;;;;;;;40.00;27.92;;;14.20;99.90;;;;;;5003873;28;25070;-73
2021/09/06 03:30:07;;;;;;;46.40;28.90;;;14.20;99.90;;;;;;5009758;28;25045;-74
2021/09/06 03:32:33;;;;;;;41.20;28.55;;;14.20;99.90;;;;;;5006218;28;25128;-73
2021/09/06 03:34:58;;;;;;;41.35;28.15;;;14.20;99.90;;;;;;5005525;28;25132;-71
2021/09/06 03:37:24;;;;;;;43.30;28.23;;;14.10;99.90;;;;;;5008344;28;25091;-72
2021/09/06 03:39:50;;;;;;;40.22;28.15;;;14.10;99.90;;;;;;5010347;28;25111;-73
2021/09/06 03:42:16;;;;;;;44.40;28.80;;;14.10;99.90;;;;;;5003504;28;25053;-73
2021/09/06 03:44:42;;;;;;;48.72;28.80;;;14.20;99.90;;;;;;5009538;28;25057;-75
2021/09/06 03:47:07;;;;;;;41.65;28.00;;;14.20;99.90;;;;;;5010928;28;25069;-73
2021/09/06 03:49:33;;;;;;;42.83;29.13;;;14.20;99.90;;;;;;5010325;28;25086;-73
2021/09/06 03:51:59;;;;;;;41.85;30.95;;;14.20;99.90;;;;;;5010213;28;25061;-75
2021/09/06 03:54:24;;;;;;;39.55;27.40;;;14.10;99.90;;;;;;4999217;28;25122;-72
2021/09/06 03:56:50;;;;;;;42.42;29.08;;;14.00;99.90;;;;;;5007429;28;25083;-71
2021/09/06 03:59:17;;;;;;;43.05;28.92;;;13.90;99.90;;;;;;5010998;28;25064;-73
2021/09/06 04:01:43;;;;;;;39.83;28.55;;;13.90;99.90;;;;;;5010079;28;25080;-72
2021/09/06 04:04:11;;;;;;;41.85;28.30;;;14.00;99.90;;;;;;5010454;28;25092;-72
2021/09/06 04:06:36;;;;;;;40.53;29.77;;;14.00;99.90;;;;;;5009698;28;25072;-71
2021/09/06 04:09:02;;;;;;;43.45;30.42;;;13.90;99.90;;;;;;5009324;28;25070;-73
2021/09/06 04:11:28;;;;;;;39.67;28.02;;;13.90;99.90;;;;;;5010193;28;25244;-73
2021/09/06 04:13:53;;;;;;;37.75;26.88;;;13.90;99.90;;;;;;5004299;28;25103;-72
2021/09/06 04:16:19;;;;;;;42.60;28.02;;;13.90;99.90;;;;;;5010111;28;25068;-73
2021/09/06 04:18:44;;;;;;;41.22;29.05;;;13.90;99.90;;;;;;5003724;28;25137;-73
2021/09/06 04:21:10;;;;;;;47.38;31.27;;;13.90;99.90;;;;;;5010308;28;25137;-71
2021/09/06 04:23:36;;;;;;;41.20;30.30;;;13.90;99.90;;;;;;5001254;28;25128;-72
2021/09/06 04:26:02;;;;;;;46.92;29.35;;;13.90;99.90;;;;;;5008431;28;25058;-73
2021/09/06 04:28:28;;;;;;;40.78;27.63;;;13.80;99.90;;;;;;4998242;28;25152;-71
2021/09/06 04:30:56;;;;;;;44.70;28.40;;;13.80;99.90;;;;;;4999898;28;25091;-73
2021/09/06 04:33:22;;;;;;;42.63;29.70;;;13.80;99.90;;;;;;5005901;28;25071;-73
2021/09/06 04:35:48;;;;;;;41.53;27.83;;;13.80;99.90;;;;;;5004889;28;25054;-75
2021/09/06 04:38:13;;;;;;;40.10;25.67;;;13.80;99.90;;;;;;5007523;28;25083;-73
2021/09/06 04:40:40;;;;;;;38.55;27.17;;;13.90;99.90;;;;;;5008488;28;25159;-73
2021/09/06 04:43:05;;;;;;;38.25;26.83;;;13.80;99.90;;;;;;5003916;28;25133;-73
2021/09/06 04:45:31;;;;;;;39.40;27.25;;;13.90;99.90;;;;;;5009615;28;25090;-74
2021/09/06 04:47:56;;;;;;;43.58;28.80;;;13.90;99.90;;;;;;5009680;28;25099;-73
2021/09/06 04:50:22;;;;;;;47.65;32.15;;;13.80;99.90;;;;;;5009207;28;25124;-74
2021/09/06 04:52:48;;;;;;;48.42;30.98;;;13.70;99.90;;;;;;5010427;28;25059;-73
2021/09/06 04:55:13;;;;;;;46.28;29.85;;;13.70;99.90;;;;;;5009995;28;25079;-74
2021/09/06 04:57:39;;;;;;;42.38;28.48;;;13.70;99.90;;;;;;5010517;28;25085;-74
2021/09/06 05:00:05;;;;;;;41.85;27.55;;;13.70;99.90;;;;;;5009241;28;25088;-73
2021/09/06 05:02:31;;;;;;;46.35;29.80;;;13.70;99.90;;;;;;4995896;28;25113;-73
2021/09/06 05:04:56;;;;;;;42.85;27.33;;;13.60;99.90;;;;;;5009214;28;25119;-75
2021/09/06 05:07:22;;;;;;;43.63;29.83;;;13.70;99.90;;;;;;5009991;28;25069;-73
2021/09/06 05:09:47;;;;;;;44.42;29.30;;;13.70;99.90;;;;;;5007901;28;25085;-74
2021/09/06 05:12:14;;;;;;;44.05;29.33;;;13.70;99.90;;;;;;5005527;28;25081;-73
2021/09/06 05:14:39;;;;;;;52.25;30.42;;;13.60;99.90;;;;;;5006953;28;25054;-73
2021/09/06 05:17:05;;;;;;;48.13;29.25;;;13.70;99.90;;;;;;5009279;28;25061;-73
2021/09/06 05:19:31;;;;;;;39.40;28.30;;;13.70;99.90;;;;;;5003987;28;25072;-74
2021/09/06 05:21:57;;;;;;;47.53;28.65;;;13.80;99.90;;;;;;5009946;28;25058;-72
2021/09/06 05:24:23;;;;;;;45.95;29.55;;;13.80;99.90;;;;;;5010584;28;25070;-74
2021/09/06 05:26:48;;;;;;;42.42;29.65;;;13.80;99.90;;;;;;4998089;28;25115;-73
2021/09/06 05:29:15;;;;;;;50.88;30.10;;;13.90;99.90;;;;;;5001476;28;25165;-74
2021/09/06 05:31:40;;;;;;;45.17;29.77;;;13.90;99.90;;;;;;4995219;28;25132;-74
2021/09/06 05:34:06;;;;;;;49.00;28.40;;;13.90;99.90;;;;;;4998084;28;25133;-74
2021/09/06 05:36:33;;;;;;;46.60;30.00;;;13.90;99.90;;;;;;5005333;28;25064;-73
2021/09/06 05:38:58;;;;;;;48.10;30.35;;;14.00;99.90;;;;;;4996288;28;25099;-72
2021/09/06 05:41:25;;;;;;;47.47;29.92;;;14.00;99.90;;;;;;5000072;28;25068;-74
2021/09/06 05:43:50;;;;;;;45.17;27.00;;;14.00;99.90;;;;;;5002162;28;25051;-74
2021/09/06 05:46:16;;;;;;;49.20;29.13;;;14.00;99.90;;;;;;5007650;28;25058;-74
2021/09/06 05:48:41;;;;;;;51.17;31.40;;;14.10;99.90;;;;;;5002306;28;25053;-74
2021/09/06 05:51:07;;;;;;;51.22;31.77;;;14.20;99.90;;;;;;5000923;28;25107;-74
2021/09/06 05:53:33;;;;;;;47.58;30.10;;;14.20;99.90;;;;;;4998773;28;25086;-74
2021/09/06 05:55:58;;;;;;;50.53;31.48;;;14.10;99.90;;;;;;5002744;28;25069;-75
2021/09/06 05:58:24;;;;;;;51.78;32.22;;;14.20;99.90;;;;;;5008294;28;25069;-72
2021/09/06 06:00:49;;;;;;;42.33;29.23;;;14.20;99.90;;;;;;5007802;28;25056;-74
2021/09/06 06:03:15;;;;;;;58.78;31.88;;;14.30;99.90;;;;;;5000563;28;25431;-74
2021/09/06 06:05:41;;;;;;;52.97;31.83;;;14.40;99.90;;;;;;5004744;28;25066;-72
2021/09/06 06:08:06;;;;;;;49.22;31.92;;;14.50;99.90;;;;;;5006716;28;25060;-74
2021/09/06 06:10:33;;;;;;;47.70;32.42;;;14.50;99.90;;;;;;5005470;28;25129;-74
2021/09/06 06:12:58;;;;;;;47.03;31.30;;;14.50;99.90;;;;;;5007261;28;25089;-74
2021/09/06 06:15:24;;;;;;;44.33;30.00;;;14.50;99.90;;;;;;5003965;28;25076;-74
2021/09/06 06:17:50;;;;;;;51.95;32.20;;;14.60;99.90;;;;;;5007928;28;25086;-75
2021/09/06 06:20:18;;;;;;;47.92;32.20;;;14.60;99.90;;;;;;5004063;28;25092;-74
2021/09/06 06:22:44;;;;;;;48.28;31.40;;;14.60;99.90;;;;;;5006794;28;25141;-77
2021/09/06 06:25:11;;;;;;;53.38;31.25;;;14.70;99.90;;;;;;5010326;28;25064;-75
2021/09/06 06:27:37;;;;;;;46.58;31.92;;;14.80;99.90;;;;;;5009173;28;25066;-74
2021/09/06 06:30:04;;;;;;;43.40;30.98;;;14.80;99.90;;;;;;5009009;28;25061;-74
2021/09/06 06:32:31;;;;;;;55.38;31.58;;;15.00;99.90;;;;;;5006386;28;25073;-75
2021/09/06 06:34:56;;;;;;;47.75;28.80;;;15.10;99.90;;;;;;5005001;28;25141;-75
2021/09/06 06:37:23;;;;;;;47.20;31.52;;;15.20;99.90;;;;;;5010590;28;25090;-74
2021/09/06 06:39:51;;;;;;;46.10;32.10;;;15.30;99.90;;;;;;5013827;28;25162;-75
2021/09/06 06:42:18;;;;;;;45.67;33.33;;;15.30;99.90;;;;;;5029071;28;25084;-75
2021/09/06 06:44:44;;;;;;;41.63;27.73;;;15.40;99.90;;;;;;5021824;28;25059;-76
2021/09/06 06:47:09;;;;;;;50.83;31.92;;;15.50;99.90;;;;;;5029837;28;25083;-74
2021/09/06 06:49:35;;;;;;;43.20;31.70;;;15.60;99.90;;;;;;5028699;28;25089;-73
2021/09/06 06:52:03;;;;;;;46.03;32.95;;;15.80;99.90;;;;;;5019208;28;25084;-75
2021/09/06 06:54:28;;;;;;;47.88;34.30;;;15.90;99.90;;;;;;5024512;28;25097;-74
2021/09/06 06:56:54;;;;;;;52.47;33.17;;;16.00;99.90;;;;;;5025713;28;25084;-74
2021/09/06 06:59:19;;;;;;;49.25;32.72;;;16.00;99.90;;;;;;5012638;28;25057;-75
2021/09/06 07:01:45;;;;;;;51.40;32.78;;;16.00;99.90;;;;;;5014972;28;25069;-74
2021/09/06 07:04:11;;;;;;;51.88;34.55;;;16.10;99.90;;;;;;5032367;28;25081;-74
2021/09/06 07:06:37;;;;;;;57.58;34.50;;;16.10;99.90;;;;;;5017730;28;25076;-73
2021/09/06 07:09:02;;;;;;;49.90;33.38;;;16.10;99.90;;;;;;5016268;28;25082;-75
2021/09/06 07:11:28;;;;;;;51.45;33.80;;;16.20;99.90;;;;;;5035015;28;25077;-74
2021/09/06 07:13:55;;;;;;;50.90;32.97;;;16.10;99.90;;;;;;5026245;28;25073;-74
2021/09/06 07:16:21;;;;;;;46.47;31.05;;;16.10;99.90;;;;;;5031121;28;25075;-71
2021/09/06 07:18:50;;;;;;;44.55;31.75;;;16.20;99.90;;;;;;5028225;28;25053;-74
2021/09/06 07:21:16;;;;;;;49.58;33.55;;;16.40;99.90;;;;;;5029933;28;25060;-74
2021/09/06 07:23:41;;;;;;;48.85;31.88;;;16.50;99.90;;;;;;5029453;28;25138;-73
2021/09/06 07:26:07;;;;;;;44.80;31.25;;;16.60;99.90;;;;;;5035761;28;25087;-73
2021/09/06 07:28:32;;;;;;;52.60;32.92;;;16.70;99.90;;;;;;5030106;28;25069;-76
2021/09/06 07:30:58;;;;;;;46.15;31.88;;;16.70;99.90;;;;;;5018821;28;25073;-75
2021/09/06 07:33:23;;;;;;;46.78;32.50;;;16.80;99.90;;;;;;5018195;28;25106;-76
2021/09/06 07:35:49;;;;;;;46.10;33.13;;;16.80;99.90;;;;;;5015405;28;25067;-76
2021/09/06 07:38:15;;;;;;;43.67;30.40;;;16.70;99.90;;;;;;5017748;28;25065;-76
2021/09/06 07:40:41;;;;;;;41.17;31.13;;;16.70;99.90;;;;;;5011173;28;25056;-74
2021/09/06 07:43:07;;;;;;;46.28;31.98;;;16.70;99.90;;;;;;5011611;28;25157;-74
2021/09/06 07:45:33;;;;;;;40.47;30.52;;;16.90;99.90;;;;;;5018298;28;25083;-75
2021/09/06 07:47:59;;;;;;;40.97;28.52;;;17.10;99.90;;;;;;5011631;28;25053;-75
2021/09/06 07:50:24;;;;;;;44.20;29.75;;;17.40;99.90;;;;;;5015479;28;25150;-75
2021/09/06 07:52:50;;;;;;;38.15;28.42;;;17.40;99.90;;;;;;5001842;28;25089;-74
2021/09/06 07:55:15;;;;;;;46.50;30.70;;;17.50;99.90;;;;;;5027117;28;25073;-75
2021/09/06 07:57:41;;;;;;;41.08;29.27;;;17.60;99.90;;;;;;5015344;28;25076;-76
2021/09/06 08:00:07;;;;;;;38.97;28.85;;;17.70;99.90;;;;;;5013219;28;25097;-77
2021/09/06 08:02:49;;;;;;;41.65;29.08;;;17.80;99.90;;;;;;5013591;28;25103;-74
2021/09/06 08:05:23;;;;;;;42.42;30.67;;;17.90;99.90;;;;;;5012491;28;25124;-74
2021/09/06 08:07:49;;;;;;;40.05;30.02;;;17.90;99.90;;;;;;5013841;28;25129;-77
2021/09/06 08:10:16;;;;;;;43.08;29.45;;;17.90;99.90;;;;;;5013267;28;25051;-73
2021/09/06 08:12:42;;;;;;;46.58;29.80;;;17.80;99.90;;;;;;5015003;28;25086;-75
2021/09/06 08:15:10;;;;;;;40.45;28.75;;;18.00;99.90;;;;;;5003309;28;25070;-76
2021/09/06 08:17:36;;;;;;;37.65;28.08;;;18.20;99.90;;;;;;5001248;28;25092;-75
2021/09/06 08:20:05;;;;;;;37.45;26.17;;;18.20;99.90;;;;;;5014775;28;25073;-76
2021/09/06 08:22:33;;;;;;;34.85;26.70;;;18.40;99.90;;;;;;5010770;28;25081;-76
2021/09/06 08:25:00;;;;;;;41.50;26.65;;;19.00;99.90;;;;;;5011873;28;25094;-75
2021/09/06 08:27:25;;;;;;;37.13;27.50;;;19.10;99.90;;;;;;5008275;28;25056;-75
2021/09/06 08:29:51;;;;;;;39.47;27.70;;;19.10;99.90;;;;;;5011223;28;25079;-75
2021/09/06 08:32:16;;;;;;;41.15;28.55;;;19.00;99.90;;;;;;5009452;28;25053;-75
2021/09/06 08:34:42;;;;;;;36.88;27.30;;;19.30;99.90;;;;;;5013319;28;25054;-78
2021/09/06 08:37:09;;;;;;;45.03;27.90;;;19.40;99.90;;;;;;5011983;28;25092;-76
2021/09/06 08:39:37;;;;;;;36.72;28.63;;;19.60;99.90;;;;;;5011933;28;25116;-74
2021/09/06 08:42:03;;;;;;;41.90;28.58;;;19.60;99.90;;;;;;5011086;28;25060;-76
2021/09/06 08:44:30;;;;;;;37.97;27.13;;;19.50;99.90;;;;;;5006114;28;25157;-74
2021/09/06 08:46:56;;;;;;;32.35;25.40;;;19.50;99.90;;;;;;5011845;28;25098;-75
2021/09/06 08:49:21;;;;;;;40.53;27.00;;;19.90;99.90;;;;;;5013300;28;25091;-75
2021/09/06 08:51:48;;;;;;;42.40;27.75;;;20.20;99.90;;;;;;5014374;28;25072;-76
2021/09/06 08:54:14;;;;;;;37.70;26.85;;;20.80;99.90;;;;;;5015022;28;25092;-75
2021/09/06 08:56:39;;;;;;;47.88;31.70;;;20.70;99.90;;;;;;5011491;28;25136;-74
2021/09/06 08:59:06;;;;;;;48.40;31.25;;;20.10;99.90;;;;;;5009568;28;25152;-76
2021/09/06 09:01:44;;;;;;;47.78;29.02;;;19.80;99.90;;;;;;5012112;28;25110;-74
2021/09/06 09:04:18;;;;;;;43.30;28.52;;;19.90;99.90;;;;;;5014124;28;25048;-77
2021/09/06 09:06:47;;;;;;;37.97;26.77;;;20.40;99.90;;;;;;5016869;28;25064;-75
2021/09/06 09:09:28;;;;;;;36.55;28.48;;;20.80;99.90;;;;;;5026329;28;25085;-74
2021/09/06 09:12:06;;;;;;;42.30;27.83;;;20.40;99.90;;;;;;5033286;28;25107;-74
2021/09/06 09:14:34;;;;;;;35.05;27.48;;;20.40;99.90;;;;;;5025640;28;25145;-75
2021/09/06 09:17:00;;;;;;;39.55;26.38;;;20.40;99.90;;;;;;5010799;28;25063;-74
2021/09/06 09:19:26;;;;;;;40.08;25.58;;;20.40;99.90;;;;;;5007933;28;25162;-75
2021/09/06 09:21:58;;;;;;;33.63;24.63;;;20.40;99.90;;;;;;5007514;28;25063;-75
2021/09/06 09:24:24;;;;;;;33.85;24.00;;;20.20;99.90;;;;;;5016109;28;25069;-73
2021/09/06 09:27:01;;;;;;;35.03;23.08;;;20.10;99.90;;;;;;5009820;28;25071;-75
2021/09/06 09:29:27;;;;;;;29.38;20.80;;;20.20;99.90;;;;;;5009566;28;25134;-76
2021/09/06 09:31:55;;;;;;;30.60;20.73;;;20.30;99.90;;;;;;5003251;28;25067;-75
2021/09/06 09:34:21;;;;;;;34.00;19.90;;;20.30;99.90;;;;;;5006977;28;25061;-74
2021/09/06 09:36:47;;;;;;;29.60;19.90;;;20.20;99.90;;;;;;5009629;28;25073;-75
2021/09/06 09:39:19;;;;;;;26.90;18.02;;;20.30;99.90;;;;;;5009547;28;25063;-76
2021/09/06 09:41:48;;;;;;;29.95;20.95;;;20.60;99.90;;;;;;5003182;28;25069;-74
2021/09/06 09:44:21;;;;;;;30.88;21.73;;;20.60;99.90;;;;;;5003963;28;25067;-74
2021/09/06 09:47:01;;;;;;;28.75;21.33;;;20.90;99.90;;;;;;5008454;28;25143;-76
2021/09/06 09:49:29;;;;;;;29.60;20.05;;;21.00;99.90;;;;;;5008802;28;25158;-75
2021/09/06 09:51:55;;;;;;;29.67;19.17;;;21.50;99.90;;;;;;5010101;28;25141;-76
2021/09/06 09:54:21;;;;;;;27.17;18.33;;;22.10;99.90;;;;;;5011059;28;25074;-77
2021/09/06 09:56:47;;;;;;;31.48;20.20;;;22.20;99.90;;;;;;5009356;28;25081;-78
2021/09/06 09:59:17;;;;;;;27.13;18.65;;;22.40;99.90;;;;;;5011244;28;25057;-74
2021/09/06 10:01:52;;;;;;;25.92;18.73;;;22.30;99.90;;;;;;5007355;28;25060;-75
2021/09/06 10:04:22;;;;;;;26.60;17.75;;;22.10;99.90;;;;;;5002403;28;25094;-75
2021/09/06 10:06:48;;;;;;;27.95;19.92;;;22.20;99.90;;;;;;5009893;28;25072;-77
2021/09/06 10:09:14;;;;;;;29.40;19.98;;;22.30;99.90;;;;;;5010044;28;25070;-75
2021/09/06 10:11:42;;;;;;;29.88;20.58;;;22.30;99.90;;;;;;5009097;28;25074;-76
2021/09/06 10:14:19;;;;;;;31.65;21.73;;;22.20;99.90;;;;;;5004490;28;25090;-76
2021/09/06 10:17:06;;;;;;;27.65;19.90;;;21.90;99.90;;;;;;5006718;28;25148;-77
2021/09/06 10:19:40;;;;;;;28.23;19.23;;;21.90;99.90;;;;;;5002810;28;25082;-76
2021/09/06 10:22:05;;;;;;;26.00;19.20;;;22.00;99.90;;;;;;5004506;28;25065;-76
2021/09/06 10:24:31;;;;;;;27.13;18.63;;;21.90;99.90;;;;;;5009821;28;25070;-76
2021/09/06 10:27:04;;;;;;;27.33;19.45;;;21.80;99.90;;;;;;5006589;28;25138;-76
2021/09/06 10:29:31;;;;;;;28.88;19.00;;;22.00;99.90;;;;;;5001445;28;25123;-75
2021/09/06 10:32:02;;;;;;;28.85;18.20;;;22.20;99.90;;;;;;5010148;28;25097;-76
2021/09/06 10:34:31;;;;;;;27.33;18.98;;;22.10;99.90;;;;;;5011290;28;25059;-75
2021/09/06 10:36:58;;;;;;;27.33;17.48;;;21.90;99.90;;;;;;5012479;28;25046;-73
2021/09/06 10:39:24;;;;;;;28.35;20.15;;;22.00;99.90;;;;;;5019449;28;25052;-75
2021/09/06 10:41:51;;;;;;;25.85;19.13;;;21.90;99.90;;;;;;5017777;28;25066;-75
2021/09/06 10:44:20;;;;;;;26.15;18.20;;;22.10;99.90;;;;;;5005985;28;25069;-76
2021/09/06 10:47:04;;;;;;;23.50;16.65;;;22.30;99.90;;;;;;5016183;28;25161;-75
2021/09/06 10:49:29;;;;;;;28.98;17.85;;;22.20;99.90;;;;;;5017308;28;25052;-76
2021/09/06 10:51:56;;;;;;;23.75;17.85;;;22.30;99.90;;;;;;5014912;28;25059;-76
2021/09/06 10:54:22;;;;;;;27.23;16.95;;;22.30;99.90;;;;;;5017260;28;25057;-74
2021/09/06 10:56:49;;;;;;;23.30;18.13;;;22.60;99.90;;;;;;5004262;28;25081;-73
2021/09/06 10:59:21;;;;;;;22.40;16.75;;;22.90;99.90;;;;;;5010584;28;25064;-71
2021/09/06 11:01:50;;;;;;;26.67;18.38;;;23.10;99.90;;;;;;5012179;28;25110;-75
2021/09/06 11:04:16;;;;;;;22.52;17.23;;;23.20;99.90;;;;;;5012936;28;25103;-76
2021/09/06 11:06:42;;;;;;;24.88;15.73;;;23.30;99.90;;;;;;5012941;28;25151;-76
2021/09/06 11:09:11;;;;;;;17.67;15.10;;;23.30;99.90;;;;;;5009468;28;25066;-74
2021/09/06 11:11:36;;;;;;;25.20;16.77;;;23.10;99.90;;;;;;5001308;28;25107;-77
2021/09/06 11:14:02;;;;;;;23.27;16.20;;;23.00;99.90;;;;;;5001208;28;25135;-76
2021/09/06 11:16:38;;;;;;;28.77;17.80;;;23.00;99.90;;;;;;5015318;28;25060;-76
2021/09/06 11:19:12;;;;;;;23.17;17.00;;;22.80;99.90;;;;;;5016327;28;25066;-76
2021/09/06 11:21:38;;;;;;;22.52;16.15;;;23.10;99.90;;;;;;5014155;28;25085;-74
2021/09/06 11:24:04;;;;;;;21.08;16.58;;;23.30;99.90;;;;;;5015577;28;25070;-74
2021/09/06 11:26:31;;;;;;;20.48;15.55;;;23.20;99.90;;;;;;5010400;28;25075;-76
2021/09/06 11:28:58;;;;;;;19.17;15.65;;;23.50;99.90;;;;;;5012587;28;25060;-77
2021/09/06 11:31:26;;;;;;;17.75;13.75;;;23.90;99.90;;;;;;5013754;28;25103;-76
2021/09/06 11:34:05;;;;;;;22.50;14.43;;;24.00;99.90;;;;;;5013264;28;25066;-76
2021/09/06 11:36:32;;;;;;;19.88;14.57;;;24.40;99.90;;;;;;5012562;28;25092;-76
2021/09/06 11:38:59;;;;;;;23.70;14.90;;;24.50;99.90;;;;;;5012380;28;25076;-76
2021/09/06 11:41:25;;;;;;;23.35;15.88;;;24.60;99.90;;;;;;5012352;28;25050;-75
2021/09/06 11:43:57;;;;;;;21.70;16.05;;;24.60;99.90;;;;;;5011973;28;25088;-77
2021/09/06 11:46:23;;;;;;;29.38;16.70;;;24.30;99.90;;;;;;5012159;28;25073;-75
2021/09/06 11:48:51;;;;;;;18.90;15.50;;;24.10;99.90;;;;;;5011065;28;25049;-75
2021/09/06 11:51:17;;;;;;;27.17;14.95;;;23.90;99.90;;;;;;5011949;28;25102;-76
2021/09/06 11:53:58;;;;;;;20.35;16.35;;;24.00;99.90;;;;;;5011342;28;25058;-76
2021/09/06 11:56:24;;;;;;;21.67;15.05;;;23.90;99.90;;;;;;5010014;28;25052;-76
2021/09/06 11:58:56;;;;;;;21.58;14.73;;;23.80;99.90;;;;;;4999170;28;25098;-77
2021/09/06 12:01:23;;;;;;;26.02;16.52;;;23.90;99.90;;;;;;5011006;28;25081;-75
2021/09/06 12:03:50;;;;;;;19.60;15.18;;;23.90;99.90;;;;;;5011160;28;25075;-76
2021/09/06 12:06:21;;;;;;;15.10;12.25;;;24.00;99.90;;;;;;5013132;28;25101;-77
2021/09/06 12:08:58;;;;;;;16.65;12.48;;;24.30;99.90;;;;;;4995291;28;25061;-76
2021/09/06 12:11:34;;;;;;;23.10;14.20;;;24.90;99.90;;;;;;5004524;28;25123;-75
2021/09/06 12:13:59;;;;;;;19.50;14.02;;;25.00;99.10;;;;;;5009664;28;25063;-76
2021/09/06 12:16:29;;;;;;;21.10;14.80;;;24.90;98.80;;;;;;5007097;28;25082;-76
2021/09/06 12:18:57;;;;;;;27.63;14.73;;;24.80;99.40;;;;;;5014643;28;25076;-75
2021/09/06 12:21:24;;;;;;;23.45;14.73;;;24.60;99.00;;;;;;5023135;28;25076;-77
2021/09/06 12:24:00;;;;;;;21.85;13.77;;;24.60;99.80;;;;;;5023110;28;25054;-76
2021/09/06 12:26:42;;;;;;;19.52;13.23;;;24.80;98.80;;;;;;5026631;28;25107;-77